Mae Rim, Thailand
Current Conditions -  °F | °C
As of 4:00 AM on Saturday 20 Dec 2014 (Local Time) from VTCC Reporting Station
Scattered Clouds Scattered Clouds  
Wind Chill: 61°   Ceiling: Unl
Heat Index: 61°   Visibility: 6mi
Dew Point: 57°   Wind: 2mph
Humidity: 88%   Direction: 270°W
Pressure: 30.06"   Gusts: NA
Location:  18.9°N, 98.9°E
Report Text: VTCC 192100Z 27002KT 9999 SCT040 16/14 Q1018 A3008 NOSIG
Loading
Personal Weather Stations






























Interactive Weather Map New forecast layout! Learn more

10-Day Weather Forecast

Advertisements
Track Severe Weather on mobile